createdAt,value
2019-05-23T00:00:49.793Z,101677.56
2019-05-23T00:03:59.441Z,101671.36
2019-05-23T00:07:07.252Z,101671.83
2019-05-23T00:10:13.342Z,101674.94
2019-05-23T00:13:35.734Z,101678.50
2019-05-23T00:16:40.502Z,101667.54
2019-05-23T00:19:44.520Z,101669.30
2019-05-23T00:22:48.956Z,101666.19
2019-05-23T00:25:53.857Z,101667.94
2019-05-23T00:29:09.636Z,101667.05
2019-05-23T00:32:25.616Z,101665.27
2019-05-23T00:35:31.360Z,101679.78
2019-05-23T00:38:35.603Z,101668.28
2019-05-23T00:41:40.509Z,101674.88
2019-05-23T00:44:44.657Z,101673.98
2019-05-23T00:47:49.174Z,101673.19
2019-05-23T00:50:54.310Z,101675.69
2019-05-23T00:53:58.132Z,101673.13
2019-05-23T00:57:02.335Z,101672.20
2019-05-23T01:00:06.991Z,101670.50
2019-05-23T01:03:11.338Z,101682.02
2019-05-23T01:06:15.865Z,101675.83
2019-05-23T01:09:20.537Z,101676.34
2019-05-23T01:12:25.146Z,101674.97
2019-05-23T01:15:29.564Z,101677.61
2019-05-23T01:18:33.576Z,101673.27
2019-05-23T01:21:48.890Z,101675.50
2019-05-23T01:24:55.602Z,101679.51
2019-05-23T01:27:59.622Z,101675.53
2019-05-23T01:31:06.759Z,101677.80
2019-05-23T01:34:14.052Z,101678.69
2019-05-23T01:37:18.835Z,101674.70
2019-05-23T01:40:23.414Z,101675.61
2019-05-23T01:43:27.729Z,101671.70
2019-05-23T01:46:31.556Z,101664.70
2019-05-23T01:49:37.165Z,101666.91
2019-05-23T01:52:42.276Z,101662.08
2019-05-23T01:55:46.812Z,101663.85
2019-05-23T01:58:51.193Z,101658.59
2019-05-23T02:01:55.571Z,101656.39
2019-05-23T02:04:59.933Z,101664.78
2019-05-23T02:08:05.075Z,101653.81
2019-05-23T02:11:10.527Z,101658.66
2019-05-23T02:14:14.594Z,101654.27
2019-05-23T02:17:19.656Z,101654.75
2019-05-23T02:20:24.734Z,101655.20
2019-05-23T02:23:29.079Z,101657.84
2019-05-23T02:26:33.719Z,101656.07
2019-05-23T02:29:37.653Z,101657.39
2019-05-23T02:32:41.912Z,101652.58
2019-05-23T02:35:45.723Z,101648.61
2019-05-23T02:39:08.147Z,101655.66
2019-05-23T02:42:21.870Z,101652.58
2019-05-23T02:45:33.576Z,101650.41
2019-05-23T02:48:43.248Z,101651.73
2019-05-23T02:51:47.919Z,101651.75
2019-05-23T02:54:54.141Z,101654.85
2019-05-23T02:58:05.227Z,101652.62
2019-05-23T03:01:40.291Z,101649.12
2019-05-23T03:04:44.966Z,101643.85
2019-05-23T03:07:50.680Z,101653.55
2019-05-23T03:11:05.153Z,101652.69
2019-05-23T03:14:11.525Z,101649.14
2019-05-23T03:17:18.695Z,101652.25
2019-05-23T03:20:24.062Z,101654.87
2019-05-23T03:23:28.636Z,101655.32
2019-05-23T03:27:00.140Z,101645.19
2019-05-23T03:30:06.036Z,101645.61
2019-05-23T03:33:10.120Z,101642.55
2019-05-23T03:36:14.010Z,101639.90
2019-05-23T03:39:18.546Z,101637.23
2019-05-23T03:42:23.214Z,101642.09
2019-05-23T03:45:30.921Z,101634.63
2019-05-23T03:48:36.139Z,101638.58
2019-05-23T03:51:42.726Z,101640.34
2019-05-23T03:54:49.209Z,101639.47
2019-05-23T03:57:54.611Z,101643.87
2019-05-23T04:01:00.246Z,101640.34
2019-05-23T04:04:06.287Z,101640.34
2019-05-23T04:07:10.455Z,101644.31
2019-05-23T04:10:14.488Z,101641.25
2019-05-23T04:13:18.707Z,101641.20
2019-05-23T04:16:22.727Z,101632.41
2019-05-23T04:19:26.963Z,101636.34
2019-05-23T04:22:31.433Z,101631.48
2019-05-23T04:25:35.743Z,101633.20
2019-05-23T04:28:39.663Z,101624.38
2019-05-23T04:31:43.585Z,101627.45
2019-05-23T04:34:47.571Z,101625.63
2019-05-23T04:37:51.560Z,101626.48
2019-05-23T04:40:56.215Z,101626.44
2019-05-23T04:44:00.175Z,101618.89
2019-05-23T04:47:05.461Z,101621.05
2019-05-23T04:50:12.141Z,101617.95
2019-05-23T04:53:16.035Z,101613.48
2019-05-23T04:56:19.929Z,101614.30
2019-05-23T04:59:24.431Z,101616.39
2019-05-23T05:02:30.222Z,101621.23
2019-05-23T05:05:34.347Z,101623.35
2019-05-23T05:08:38.247Z,101625.57
2019-05-23T05:11:42.726Z,101629.88
2019-05-23T05:14:47.085Z,101624.88
2019-05-23T05:17:51.585Z,101622.16
2019-05-23T05:20:55.393Z,101626.02
2019-05-23T05:23:59.292Z,101631.59
2019-05-23T05:27:04.471Z,101633.74
2019-05-23T05:30:09.047Z,101629.17
2019-05-23T05:33:12.882Z,101633.34
2019-05-23T05:36:16.871Z,101634.59
2019-05-23T05:39:22.338Z,101637.47
2019-05-23T05:42:26.999Z,101641.73
2019-05-23T05:45:31.652Z,101648.63
2019-05-23T05:48:35.850Z,101645.02
2019-05-23T05:51:40.095Z,101642.89
2019-05-23T05:54:44.071Z,101645.96
2019-05-23T05:57:47.893Z,101642.28
2019-05-23T06:00:58.453Z,101633.41
2019-05-23T06:04:03.207Z,101641.27
2019-05-23T06:07:29.554Z,101648.75
2019-05-23T06:10:33.655Z,101644.19
2019-05-23T06:13:37.533Z,101641.88
2019-05-23T06:16:41.846Z,101639.77
2019-05-23T06:19:46.392Z,101638.89
2019-05-23T06:22:52.210Z,101639.12
2019-05-23T06:25:56.131Z,101638.57
2019-05-23T06:28:59.946Z,101642.11
2019-05-23T06:32:06.855Z,101639.56
2019-05-23T06:35:10.987Z,101635.95
2019-05-23T06:38:14.962Z,101633.72
2019-05-23T06:41:19.377Z,101633.37
2019-05-23T06:44:23.839Z,101644.00
2019-05-23T06:47:27.786Z,101640.04
2019-05-23T06:50:31.861Z,101635.65
2019-05-23T06:53:35.659Z,101631.07
2019-05-23T06:56:39.569Z,101630.56
2019-05-23T06:59:43.408Z,101633.56
2019-05-23T07:02:49.193Z,101633.55
2019-05-23T07:05:53.357Z,101630.73
2019-05-23T07:08:57.713Z,101630.25
2019-05-23T07:12:01.709Z,101634.25
2019-05-23T07:15:06.241Z,101630.70
2019-05-23T07:18:10.268Z,101641.28
2019-05-23T07:21:15.000Z,101635.92
2019-05-23T07:24:19.425Z,101635.34
2019-05-23T07:27:24.368Z,101630.50
2019-05-23T07:30:28.353Z,101636.26
2019-05-23T07:33:32.322Z,101631.34
2019-05-23T07:36:36.827Z,101630.34
2019-05-23T07:39:40.824Z,101634.43
2019-05-23T07:42:44.987Z,101646.29
2019-05-23T07:45:55.786Z,101651.49
2019-05-23T07:48:59.577Z,101635.59
2019-05-23T07:52:03.829Z,101642.31
2019-05-23T07:55:17.146Z,101633.34
2019-05-23T07:58:22.630Z,101642.02
2019-05-23T08:01:28.408Z,101639.37
2019-05-23T08:04:32.556Z,101636.50
2019-05-23T08:07:38.397Z,101636.52
2019-05-23T08:10:42.381Z,101631.08
2019-05-23T08:13:46.206Z,101637.31
2019-05-23T08:16:50.877Z,101636.38
2019-05-23T08:19:55.139Z,101644.02
2019-05-23T08:22:59.141Z,101637.23
2019-05-23T08:26:03.199Z,101640.34
2019-05-23T08:29:25.910Z,101639.00
2019-05-23T08:32:12.656Z,101631.11
2019-05-23T08:35:18.211Z,101630.53
2019-05-23T08:38:23.222Z,101630.10
2019-05-23T08:41:27.730Z,101625.25
2019-05-23T08:44:31.991Z,101625.61
2019-05-23T08:47:36.141Z,101626.63
2019-05-23T08:50:39.973Z,101630.88
2019-05-23T08:53:43.868Z,101626.33
2019-05-23T08:56:47.744Z,101625.86
2019-05-23T08:59:51.602Z,101631.50
2019-05-23T09:02:58.802Z,101627.77
2019-05-23T09:06:03.353Z,101625.98
2019-05-23T09:09:28.379Z,101629.69
2019-05-23T09:12:15.607Z,101623.98
2019-05-23T09:15:19.810Z,101622.11
2019-05-23T09:18:24.328Z,101625.33
2019-05-23T09:21:28.380Z,101615.80
2019-05-23T09:24:32.266Z,101635.41
2019-05-23T09:27:36.469Z,101627.14
2019-05-23T09:30:40.432Z,101614.31
2019-05-23T09:33:44.346Z,101626.38
2019-05-23T09:36:48.486Z,101635.88
2019-05-23T09:39:52.401Z,101616.66
2019-05-23T09:42:56.330Z,101621.14
2019-05-23T09:46:00.191Z,101626.86
2019-05-23T09:49:04.164Z,101614.09
2019-05-23T09:52:09.820Z,101612.53
2019-05-23T09:55:14.142Z,101611.14
2019-05-23T09:58:18.157Z,101619.95
2019-05-23T10:01:22.552Z,101623.37
2019-05-23T10:04:26.450Z,101628.83
2019-05-23T10:07:30.550Z,101610.53
2019-05-23T10:10:34.570Z,101613.61
2019-05-23T10:13:39.678Z,101617.12
2019-05-23T10:16:43.659Z,101607.40
2019-05-23T10:19:47.634Z,101607.45
2019-05-23T10:22:51.586Z,101603.88
2019-05-23T10:25:55.720Z,101613.02
2019-05-23T10:28:59.770Z,101605.80
2019-05-23T10:32:05.514Z,101594.06
2019-05-23T10:35:10.365Z,101596.96
2019-05-23T10:38:14.374Z,101591.81
2019-05-23T10:41:18.394Z,101592.33
2019-05-23T10:44:22.282Z,101595.41
2019-05-23T10:47:26.347Z,101592.53
2019-05-23T10:50:43.627Z,101591.22
2019-05-23T10:53:36.221Z,101589.45
2019-05-23T10:56:40.219Z,101588.95
2019-05-23T10:59:44.053Z,101578.98
2019-05-23T11:02:48.217Z,101591.91
2019-05-23T11:05:52.234Z,101585.11
2019-05-23T11:08:56.328Z,101579.95
2019-05-23T11:12:00.417Z,101575.75
2019-05-23T11:15:04.651Z,101594.54
2019-05-23T11:18:10.208Z,101579.88
2019-05-23T11:21:14.101Z,101575.06
2019-05-23T11:24:18.275Z,101570.58
2019-05-23T11:27:22.812Z,101586.45
2019-05-23T11:30:42.003Z,101565.07
2019-05-23T11:33:45.908Z,101573.71
2019-05-23T11:36:49.840Z,101567.89
2019-05-23T11:39:54.041Z,101569.40
2019-05-23T11:42:57.966Z,101557.21
2019-05-23T11:46:21.309Z,101560.62
2019-05-23T11:49:25.379Z,101559.42
2019-05-23T11:52:30.234Z,101558.08
2019-05-23T11:55:34.361Z,101557.84
2019-05-23T11:58:38.163Z,101559.13
2019-05-23T12:01:50.905Z,101551.27
2019-05-23T12:04:56.114Z,101560.70
2019-05-23T12:08:00.008Z,101554.92
2019-05-23T12:11:04.089Z,101552.23
2019-05-23T12:14:08.043Z,101565.91
2019-05-23T12:17:12.736Z,101550.14
2019-05-23T12:20:17.002Z,101548.12
2019-05-23T12:23:20.835Z,101542.53
2019-05-23T12:26:24.790Z,101538.66
2019-05-23T12:29:28.771Z,101542.80
2019-05-23T12:32:32.772Z,101542.56
2019-05-23T12:35:36.584Z,101544.13
2019-05-23T12:38:40.492Z,101542.41
2019-05-23T12:41:44.588Z,101546.67
2019-05-23T12:44:48.546Z,101542.30
2019-05-23T12:48:09.027Z,101546.60
2019-05-23T12:51:13.024Z,101539.70
2019-05-23T12:54:17.012Z,101531.04
2019-05-23T12:57:20.994Z,101526.78
2019-05-23T13:00:42.664Z,101530.06
2019-05-23T13:03:46.983Z,101522.73
2019-05-23T13:06:50.874Z,101526.23
2019-05-23T13:09:54.763Z,101531.92
2019-05-23T13:12:58.748Z,101518.06
2019-05-23T13:16:02.635Z,101527.09
2019-05-23T13:19:06.561Z,101529.09
2019-05-23T13:22:11.116Z,101518.78
2019-05-23T13:25:15.388Z,101510.25
2019-05-23T13:28:19.644Z,101510.42
2019-05-23T13:31:23.640Z,101510.67
2019-05-23T13:34:27.449Z,101523.59
2019-05-23T13:37:31.468Z,101520.16
2019-05-23T13:40:35.412Z,101509.94
2019-05-23T13:43:39.625Z,101512.23
2019-05-23T13:46:44.193Z,101511.39
2019-05-23T13:49:48.183Z,101508.06
2019-05-23T13:52:52.150Z,101525.26
2019-05-23T13:55:56.336Z,101503.66
2019-05-23T13:59:00.432Z,101506.23
2019-05-23T14:02:06.123Z,101498.74
2019-05-23T14:05:10.261Z,101496.76
2019-05-23T14:08:18.488Z,101487.52
2019-05-23T14:11:20.449Z,101499.33
2019-05-23T14:14:25.077Z,101494.27
2019-05-23T14:17:36.233Z,101504.94
2019-05-23T14:20:40.203Z,101493.14
2019-05-23T14:23:44.105Z,101497.84
2019-05-23T14:26:54.898Z,101488.64
2019-05-23T14:30:08.181Z,101491.97
2019-05-23T14:33:06.381Z,101489.54
2019-05-23T14:36:38.362Z,101483.89
2019-05-23T14:39:45.966Z,101486.35
2019-05-23T14:43:15.420Z,101477.38
2019-05-23T14:46:20.044Z,101483.95
2019-05-23T14:49:30.193Z,101480.05
2019-05-23T14:52:38.113Z,101475.06
2019-05-23T14:55:42.078Z,101468.47
2019-05-23T14:58:46.088Z,101478.08
2019-05-23T15:01:50.545Z,101466.32
2019-05-23T15:04:54.363Z,101465.25
2019-05-23T15:07:58.255Z,101465.17
2019-05-23T15:11:02.325Z,101455.91
2019-05-23T15:14:06.341Z,101459.56
2019-05-23T15:17:10.231Z,101454.31
2019-05-23T15:20:14.789Z,101452.48
2019-05-23T15:23:18.724Z,101450.78
2019-05-23T15:26:23.976Z,101454.59
2019-05-23T15:29:29.402Z,101444.89
2019-05-23T15:32:33.662Z,101441.48
2019-05-23T15:35:37.559Z,101440.02
2019-05-23T15:38:41.836Z,101433.61
2019-05-23T15:41:45.850Z,101431.58
2019-05-23T15:44:50.057Z,101433.94
2019-05-23T15:47:55.090Z,101438.58
2019-05-23T15:50:59.183Z,101421.08
2019-05-23T15:54:14.892Z,101446.02
2019-05-23T15:57:22.935Z,101432.00
2019-05-23T16:01:01.434Z,101423.91
2019-05-23T16:04:11.584Z,101415.11
2019-05-23T16:07:16.027Z,101425.75
2019-05-23T16:10:22.778Z,101425.74
2019-05-23T16:13:26.763Z,101424.20
2019-05-23T16:16:39.118Z,101426.47
2019-05-23T16:19:43.789Z,101422.24
2019-05-23T16:22:47.748Z,101431.83
2019-05-23T16:25:51.614Z,101420.23
2019-05-23T16:28:55.624Z,101414.23
2019-05-23T16:32:02.788Z,101414.15
2019-05-23T16:35:06.870Z,101419.25
2019-05-23T16:38:10.971Z,101421.61
2019-05-23T16:41:14.974Z,101411.48
2019-05-23T16:44:18.922Z,101413.94
2019-05-23T16:47:22.905Z,101410.52
2019-05-23T16:50:26.687Z,101417.09
2019-05-23T16:53:35.510Z,101418.42
2019-05-23T16:56:54.149Z,101414.72
2019-05-23T17:00:15.987Z,101410.36
2019-05-23T17:03:38.826Z,101421.59
2019-05-23T17:06:50.137Z,101415.54
2019-05-23T17:10:08.659Z,101411.84
2019-05-23T17:13:17.953Z,101408.17
2019-05-23T17:16:40.848Z,101411.81
2019-05-23T17:20:18.509Z,101400.05
2019-05-23T17:23:27.687Z,101400.64
2019-05-23T17:26:53.366Z,101401.30
2019-05-23T17:30:02.216Z,101401.62
2019-05-23T17:33:07.681Z,101397.73
2019-05-23T17:36:11.554Z,101392.27
2019-05-23T17:39:16.757Z,101397.91
2019-05-23T17:42:20.561Z,101393.61
2019-05-23T17:45:24.650Z,101397.06
2019-05-23T17:48:28.571Z,101396.55
2019-05-23T17:51:32.475Z,101388.95
2019-05-23T17:54:36.353Z,101386.51
2019-05-23T17:57:40.347Z,101386.03
2019-05-23T18:00:45.655Z,101389.27
2019-05-23T18:03:49.559Z,101376.11
2019-05-23T18:06:53.746Z,101375.77
2019-05-23T18:09:57.654Z,101370.30
2019-05-23T18:13:01.713Z,101372.34
2019-05-23T18:16:06.660Z,101371.80
2019-05-23T18:19:10.815Z,101368.73
2019-05-23T18:22:14.966Z,101355.36
2019-05-23T18:25:19.340Z,101363.88
2019-05-23T18:28:24.053Z,101363.44
2019-05-23T18:31:29.609Z,101363.14
2019-05-23T18:34:33.601Z,101365.48
2019-05-23T18:37:37.431Z,101360.35
2019-05-23T18:40:41.398Z,101360.89
2019-05-23T18:43:46.655Z,101369.34
2019-05-23T18:46:52.823Z,101361.17
2019-05-23T18:49:56.805Z,101366.47
2019-05-23T18:53:00.800Z,101358.59
2019-05-23T18:56:05.023Z,101357.78
2019-05-23T18:59:09.972Z,101356.41
2019-05-23T19:02:13.852Z,101363.43
2019-05-23T19:05:18.179Z,101361.06
2019-05-23T19:08:22.716Z,101358.52
2019-05-23T19:11:26.808Z,101365.27
2019-05-23T19:14:30.746Z,101360.04
2019-05-23T19:17:34.650Z,101366.19
2019-05-23T19:20:38.987Z,101359.78
2019-05-23T19:23:43.136Z,101362.16
2019-05-23T19:26:48.411Z,101367.80
2019-05-23T19:29:52.403Z,101372.52
2019-05-23T19:32:56.939Z,101381.44
2019-05-23T19:36:00.864Z,101374.91
2019-05-23T19:39:06.711Z,101386.13
2019-05-23T19:42:11.076Z,101387.61
2019-05-23T19:45:15.041Z,101390.69
2019-05-23T19:48:20.099Z,101390.30
2019-05-23T19:51:23.908Z,101391.62
2019-05-23T19:54:27.911Z,101393.60
2019-05-23T19:57:32.143Z,101393.08
2019-05-23T20:00:36.778Z,101395.45
2019-05-23T20:03:41.049Z,101392.38
2019-05-23T20:06:45.832Z,101390.92
2019-05-23T20:09:50.213Z,101388.98
2019-05-23T20:12:54.126Z,101391.69
2019-05-23T20:15:57.934Z,101386.25
2019-05-23T20:19:01.829Z,101390.46
2019-05-23T20:22:05.838Z,101386.97
2019-05-23T20:25:10.899Z,101383.76
2019-05-23T20:28:14.803Z,101379.45
2019-05-23T20:31:18.889Z,101383.11
2019-05-23T20:34:22.953Z,101381.88
2019-05-23T20:37:29.984Z,101381.94
2019-05-23T20:40:33.928Z,101382.90
2019-05-23T20:43:37.998Z,101384.02
2019-05-23T20:46:42.289Z,101386.02
2019-05-23T20:49:46.200Z,101382.69
2019-05-23T20:52:50.020Z,101387.45
2019-05-23T20:55:53.868Z,101378.95
2019-05-23T20:58:57.757Z,101378.57
2019-05-23T21:02:01.913Z,101380.07
2019-05-23T21:05:05.917Z,101378.77
2019-05-23T21:08:09.810Z,101380.92
2019-05-23T21:11:13.695Z,101380.48
2019-05-23T21:14:17.652Z,101377.81
2019-05-23T21:17:21.727Z,101369.64
2019-05-23T21:20:25.620Z,101376.64
2019-05-23T21:23:29.507Z,101385.25
2019-05-23T21:26:33.419Z,101379.44
2019-05-23T21:29:37.319Z,101376.05
2019-05-23T21:32:41.199Z,101376.20
2019-05-23T21:35:45.098Z,101377.30
2019-05-23T21:38:49.147Z,101367.18
2019-05-23T21:41:53.004Z,101370.00
2019-05-23T21:44:56.911Z,101377.59
2019-05-23T21:48:00.886Z,101373.52
2019-05-23T21:51:05.207Z,101371.89
2019-05-23T21:54:09.241Z,101364.91
2019-05-23T21:57:16.213Z,101351.47
2019-05-23T22:00:32.181Z,101348.92
2019-05-23T22:03:38.227Z,101351.69
2019-05-23T22:06:44.775Z,101351.47
2019-05-23T22:09:50.368Z,101347.66
2019-05-23T22:13:03.920Z,101343.66
2019-05-23T22:16:00.810Z,101344.58
2019-05-23T22:19:09.858Z,101352.70
2019-05-23T22:22:16.913Z,101346.97
2019-05-23T22:25:32.620Z,101350.39
2019-05-23T22:28:37.228Z,101347.73
2019-05-23T22:31:44.193Z,101342.31
2019-05-23T22:35:10.238Z,101340.77
2019-05-23T22:38:14.994Z,101339.93
2019-05-23T22:41:19.615Z,101327.54
2019-05-23T22:44:23.872Z,101338.99
2019-05-23T22:47:29.417Z,101326.62
2019-05-23T22:50:33.260Z,101324.07
2019-05-23T22:53:37.195Z,101326.67
2019-05-23T22:56:41.589Z,101323.75
2019-05-23T22:59:48.036Z,101313.61
2019-05-23T23:02:52.243Z,101307.14
2019-05-23T23:05:56.119Z,101306.77
2019-05-23T23:09:00.082Z,101303.62
2019-05-23T23:12:03.973Z,101307.13
2019-05-23T23:15:08.144Z,101305.57
2019-05-23T23:18:11.979Z,101298.27
2019-05-23T23:21:15.881Z,101294.86
2019-05-23T23:24:19.786Z,101297.81
2019-05-23T23:27:23.679Z,101292.05
2019-05-23T23:30:30.706Z,101291.63
2019-05-23T23:33:34.673Z,101288.18
2019-05-23T23:36:38.498Z,101289.66
2019-05-23T23:39:42.504Z,101285.73
2019-05-23T23:42:46.320Z,101288.06
2019-05-23T23:46:07.998Z,101278.95
2019-05-23T23:49:29.669Z,101283.10
2019-05-23T23:52:51.322Z,101281.00
2019-05-23T23:56:13.002Z,101277.59
2019-05-23T23:59:15.955Z,101271.52
